createdAt,value
2019-05-05T00:00:15.279Z,101213.92
2019-05-05T00:01:41.536Z,101220.70
2019-05-05T00:02:58.079Z,101213.13
2019-05-05T00:04:26.916Z,101214.39
2019-05-05T00:05:38.601Z,101218.62
2019-05-05T00:06:45.534Z,101215.23
2019-05-05T00:07:54.138Z,101217.77
2019-05-05T00:09:00.994Z,101220.72
2019-05-05T00:10:10.830Z,101220.70
2019-05-05T00:11:38.168Z,101225.36
2019-05-05T00:13:04.373Z,101223.20
2019-05-05T00:14:29.389Z,101225.23
2019-05-05T00:16:01.892Z,101227.36
2019-05-05T00:17:14.535Z,101221.84
2019-05-05T00:18:25.256Z,101219.73
2019-05-05T00:19:33.351Z,101224.80
2019-05-05T00:20:41.043Z,101222.24
2019-05-05T00:21:47.862Z,101229.00
2019-05-05T00:22:54.894Z,101223.94
2019-05-05T00:24:01.833Z,101223.13
2019-05-05T00:25:09.354Z,101226.92
2019-05-05T00:26:16.093Z,101220.13
2019-05-05T00:27:22.913Z,101224.78
2019-05-05T00:28:29.974Z,101226.87
2019-05-05T00:29:37.057Z,101225.53
2019-05-05T00:30:44.821Z,101222.98
2019-05-05T00:31:52.219Z,101222.16
2019-05-05T00:32:59.524Z,101226.36
2019-05-05T00:34:06.543Z,101227.17
2019-05-05T00:35:14.879Z,101221.27
2019-05-05T00:36:21.673Z,101220.41
2019-05-05T00:37:28.394Z,101216.17
2019-05-05T00:38:35.345Z,101216.59
2019-05-05T00:39:42.115Z,101219.16
2019-05-05T00:40:49.266Z,101215.80
2019-05-05T00:41:56.037Z,101224.69
2019-05-05T00:43:02.741Z,101224.69
2019-05-05T00:44:09.470Z,101233.16
2019-05-05T00:45:16.777Z,101234.00
2019-05-05T00:46:41.111Z,101235.71
2019-05-05T00:47:54.468Z,101239.53
2019-05-05T00:49:01.394Z,101234.02
2019-05-05T00:50:10.689Z,101233.61
2019-05-05T00:51:17.969Z,101234.05
2019-05-05T00:52:25.547Z,101226.36
2019-05-05T00:53:34.301Z,101225.09
2019-05-05T00:54:41.116Z,101227.67
2019-05-05T00:55:47.845Z,101225.20
2019-05-05T00:56:54.859Z,101230.34
2019-05-05T00:58:01.964Z,101228.22
2019-05-05T00:59:11.442Z,101227.82
2019-05-05T01:00:48.210Z,101226.19
2019-05-05T01:02:18.532Z,101224.92
2019-05-05T01:03:26.934Z,101217.70
2019-05-05T01:04:41.241Z,101215.19
2019-05-05T01:06:06.955Z,101216.41
2019-05-05T01:07:14.411Z,101215.61
2019-05-05T01:08:25.014Z,101212.22
2019-05-05T01:09:34.432Z,101209.27
2019-05-05T01:10:41.535Z,101213.05
2019-05-05T01:11:49.186Z,101214.78
2019-05-05T01:12:56.286Z,101210.56
2019-05-05T01:14:05.073Z,101215.20
2019-05-05T01:15:12.249Z,101227.50
2019-05-05T01:16:18.974Z,101226.67
2019-05-05T01:17:25.946Z,101222.05
2019-05-05T01:18:32.668Z,101223.75
2019-05-05T01:19:39.404Z,101228.42
2019-05-05T01:20:46.503Z,101225.07
2019-05-05T01:21:54.494Z,101221.69
2019-05-05T01:23:01.682Z,101228.06
2019-05-05T01:24:08.762Z,101228.03
2019-05-05T01:25:16.358Z,101231.41
2019-05-05T01:26:24.867Z,101231.44
2019-05-05T01:27:31.696Z,101230.14
2019-05-05T01:28:38.793Z,101233.14
2019-05-05T01:29:45.523Z,101231.02
2019-05-05T01:30:55.052Z,101231.02
2019-05-05T01:32:05.036Z,101232.30
2019-05-05T01:33:27.538Z,101233.16
2019-05-05T01:34:40.585Z,101236.09
2019-05-05T01:35:48.505Z,101229.25
2019-05-05T01:37:01.921Z,101235.17
2019-05-05T01:38:14.795Z,101235.20
2019-05-05T01:39:49.752Z,101238.11
2019-05-05T01:41:09.114Z,101237.27
2019-05-05T01:42:16.286Z,101239.32
2019-05-05T01:43:25.176Z,101237.64
2019-05-05T01:44:31.836Z,101242.28
2019-05-05T01:45:38.927Z,101240.59
2019-05-05T01:46:45.695Z,101242.72
2019-05-05T01:47:54.565Z,101248.64
2019-05-05T01:49:01.758Z,101249.93
2019-05-05T01:50:18.328Z,101253.72
2019-05-05T01:51:18.082Z,101246.91
2019-05-05T01:52:25.422Z,101246.08
2019-05-05T01:53:32.533Z,101253.69
2019-05-05T01:54:39.270Z,101247.34
2019-05-05T01:55:46.455Z,101244.77
2019-05-05T01:56:55.143Z,101251.94
2019-05-05T01:58:02.043Z,101256.20
2019-05-05T01:59:09.202Z,101253.67
2019-05-05T02:00:16.322Z,101248.55
2019-05-05T02:01:24.667Z,101246.84
2019-05-05T02:02:31.717Z,101251.09
2019-05-05T02:03:39.128Z,101253.64
2019-05-05T02:04:45.875Z,101257.03
2019-05-05T02:05:54.569Z,101253.20
2019-05-05T02:07:01.572Z,101253.58
2019-05-05T02:08:08.482Z,101260.34
2019-05-05T02:09:16.003Z,101255.29
2019-05-05T02:10:25.417Z,101257.83
2019-05-05T02:11:35.158Z,101257.36
2019-05-05T02:12:41.599Z,101255.64
2019-05-05T02:13:48.567Z,101255.62
2019-05-05T02:14:55.315Z,101253.94
2019-05-05T02:16:04.557Z,101253.45
2019-05-05T02:17:11.781Z,101254.73
2019-05-05T02:18:18.827Z,101253.83
2019-05-05T02:19:25.601Z,101255.97
2019-05-05T02:20:56.548Z,101251.30
2019-05-05T02:22:05.352Z,101252.14
2019-05-05T02:23:15.221Z,101247.45
2019-05-05T02:24:22.286Z,101249.12
2019-05-05T02:25:29.070Z,101252.93
2019-05-05T02:26:36.171Z,101250.41
2019-05-05T02:27:44.612Z,101255.47
2019-05-05T02:28:58.302Z,101254.60
2019-05-05T02:30:17.187Z,101256.73
2019-05-05T02:31:37.017Z,101256.69
2019-05-05T02:32:55.376Z,101260.45
2019-05-05T02:34:05.224Z,101265.92
2019-05-05T02:35:16.514Z,101264.23
2019-05-05T02:36:25.764Z,101264.26
2019-05-05T02:37:32.522Z,101268.44
2019-05-05T02:38:39.263Z,101269.33
2019-05-05T02:39:58.105Z,101269.33
2019-05-05T02:40:56.335Z,101271.07
2019-05-05T02:42:05.697Z,101268.57
2019-05-05T02:43:15.040Z,101267.77
2019-05-05T02:44:25.344Z,101269.81
2019-05-05T02:45:56.086Z,101266.88
2019-05-05T02:47:19.030Z,101267.71
2019-05-05T02:48:28.600Z,101268.10
2019-05-05T02:49:36.459Z,101276.61
2019-05-05T02:51:01.790Z,101270.29
2019-05-05T02:52:06.430Z,101270.23
2019-05-05T02:53:14.299Z,101271.54
2019-05-05T02:54:24.811Z,101270.67
2019-05-05T02:55:34.812Z,101271.54
2019-05-05T02:56:48.244Z,101270.25
2019-05-05T02:57:56.961Z,101270.66
2019-05-05T02:59:08.251Z,101272.80
2019-05-05T03:00:34.442Z,101270.70
2019-05-05T03:01:57.434Z,101269.45
2019-05-05T03:03:05.187Z,101272.03
2019-05-05T03:04:14.087Z,101267.76
2019-05-05T03:05:21.072Z,101270.73
2019-05-05T03:06:28.101Z,101261.45
2019-05-05T03:07:38.357Z,101270.80
2019-05-05T03:08:47.271Z,101266.09
2019-05-05T03:09:54.570Z,101264.83
2019-05-05T03:11:04.819Z,101263.58
2019-05-05T03:12:14.896Z,101266.13
2019-05-05T03:13:24.339Z,101262.78
2019-05-05T03:14:35.534Z,101273.38
2019-05-05T03:15:55.116Z,101271.69
2019-05-05T03:17:04.246Z,101273.35
2019-05-05T03:18:13.350Z,101277.59
2019-05-05T03:19:23.547Z,101273.33
2019-05-05T03:20:30.364Z,101278.46
2019-05-05T03:21:37.795Z,101275.05
2019-05-05T03:22:45.064Z,101278.48
2019-05-05T03:23:54.525Z,101275.94
2019-05-05T03:25:01.817Z,101282.27
2019-05-05T03:26:09.066Z,101278.46
2019-05-05T03:27:15.891Z,101284.80
2019-05-05T03:28:24.056Z,101280.53
2019-05-05T03:29:33.454Z,101289.02
2019-05-05T03:30:39.731Z,101285.67
2019-05-05T03:31:47.925Z,101290.75
2019-05-05T03:32:55.866Z,101293.31
2019-05-05T03:34:05.900Z,101289.88
2019-05-05T03:35:14.513Z,101292.43
2019-05-05T03:36:24.407Z,101297.91
2019-05-05T03:37:30.969Z,101295.44
2019-05-05T03:38:38.362Z,101296.33
2019-05-05T03:39:50.960Z,101295.88
2019-05-05T03:40:59.091Z,101295.94
2019-05-05T03:42:14.851Z,101297.99
2019-05-05T03:43:25.993Z,101301.72
2019-05-05T03:44:48.829Z,101302.58
2019-05-05T03:45:58.700Z,101292.50
2019-05-05T03:47:06.160Z,101296.31
2019-05-05T03:48:13.655Z,101289.54
2019-05-05T03:49:21.322Z,101296.69
2019-05-05T03:50:29.148Z,101294.07
2019-05-05T03:51:36.255Z,101299.15
2019-05-05T03:52:43.918Z,101297.94
2019-05-05T03:53:55.852Z,101299.22
2019-05-05T03:55:03.907Z,101297.11
2019-05-05T03:56:11.300Z,101295.86
2019-05-05T03:57:19.162Z,101300.13
2019-05-05T03:58:26.946Z,101297.17
2019-05-05T03:59:33.685Z,101296.33
2019-05-05T04:01:34.638Z,101302.28
2019-05-05T04:02:49.253Z,101298.45
2019-05-05T04:03:59.797Z,101298.87
2019-05-05T04:05:44.387Z,101299.31
2019-05-05T04:06:53.977Z,101298.45
2019-05-05T04:08:01.107Z,101301.81
2019-05-05T04:09:09.583Z,101303.55
2019-05-05T04:10:16.346Z,101301.44
2019-05-05T04:11:23.681Z,101308.64
2019-05-05T04:12:31.203Z,101300.62
2019-05-05T04:13:38.457Z,101301.46
2019-05-05T04:14:47.239Z,101299.78
2019-05-05T04:16:17.084Z,101307.42
2019-05-05T04:17:44.327Z,101302.83
2019-05-05T04:18:55.373Z,101308.38
2019-05-05T04:20:06.330Z,101306.30
2019-05-05T04:21:14.499Z,101309.72
2019-05-05T04:22:23.748Z,101311.86
2019-05-05T04:23:30.672Z,101306.32
2019-05-05T04:24:37.955Z,101310.12
2019-05-05T04:25:45.460Z,101310.91
2019-05-05T04:26:52.200Z,101314.77
2019-05-05T04:27:58.933Z,101316.52
2019-05-05T04:29:06.290Z,101315.71
2019-05-05T04:30:14.252Z,101313.22
2019-05-05T04:31:21.233Z,101322.13
2019-05-05T04:32:27.976Z,101318.30
2019-05-05T04:33:34.735Z,101317.45
2019-05-05T04:34:43.646Z,101314.55
2019-05-05T04:35:50.570Z,101309.03
2019-05-05T04:36:57.820Z,101310.33
2019-05-05T04:38:05.534Z,101307.79
2019-05-05T04:39:14.397Z,101312.45
2019-05-05T04:40:23.860Z,101311.22
2019-05-05T04:41:30.583Z,101311.21
2019-05-05T04:42:37.866Z,101312.91
2019-05-05T04:43:44.948Z,101315.85
2019-05-05T04:44:53.828Z,101320.09
2019-05-05T04:46:00.752Z,101317.60
2019-05-05T04:47:16.271Z,101320.95
2019-05-05T04:48:48.180Z,101324.34
2019-05-05T04:50:14.965Z,101325.22
2019-05-05T04:51:47.105Z,101326.09
2019-05-05T04:52:44.616Z,101326.09
2019-05-05T04:54:10.060Z,101327.40
2019-05-05T04:55:16.907Z,101327.41
2019-05-05T04:56:23.651Z,101331.23
2019-05-05T04:57:30.390Z,101334.21
2019-05-05T04:58:37.323Z,101331.67
2019-05-05T04:59:44.554Z,101329.99
2019-05-05T05:00:51.395Z,101332.95
2019-05-05T05:02:01.604Z,101338.88
2019-05-05T05:03:30.004Z,101338.50
2019-05-05T05:04:54.594Z,101346.61
2019-05-05T05:06:20.177Z,101344.52
2019-05-05T05:07:26.948Z,101342.84
2019-05-05T05:08:33.978Z,101344.97
2019-05-05T05:09:43.364Z,101343.72
2019-05-05T05:10:50.209Z,101348.81
2019-05-05T05:11:57.219Z,101348.00
2019-05-05T05:13:04.644Z,101347.15
2019-05-05T05:14:14.222Z,101345.02
2019-05-05T05:15:20.593Z,101355.22
2019-05-05T05:16:28.038Z,101351.00
2019-05-05T05:17:44.263Z,101351.44
2019-05-05T05:18:51.295Z,101351.01
2019-05-05T05:19:58.040Z,101352.69
2019-05-05T05:21:05.162Z,101356.95
2019-05-05T05:22:13.711Z,101357.38
2019-05-05T05:23:20.968Z,101354.45
2019-05-05T05:24:28.504Z,101364.66
2019-05-05T05:25:35.242Z,101359.56
2019-05-05T05:26:44.000Z,101364.25
2019-05-05T05:27:50.676Z,101362.98
2019-05-05T05:28:57.414Z,101362.97
2019-05-05T05:30:04.804Z,101368.94
2019-05-05T05:31:14.046Z,101371.45
2019-05-05T05:32:20.959Z,101367.24
2019-05-05T05:33:27.720Z,101373.58
2019-05-05T05:34:35.117Z,101378.67
2019-05-05T05:35:43.988Z,101377.80
2019-05-05T05:36:50.712Z,101382.93
2019-05-05T05:37:57.823Z,101378.27
2019-05-05T05:39:14.442Z,101381.66
2019-05-05T05:40:26.872Z,101382.92
2019-05-05T05:41:47.067Z,101387.59
2019-05-05T05:42:54.306Z,101383.78
2019-05-05T05:44:09.887Z,101386.33
2019-05-05T05:45:43.541Z,101387.20
2019-05-05T05:46:58.089Z,101389.28
2019-05-05T05:48:16.219Z,101391.41
2019-05-05T05:49:36.630Z,101398.23
2019-05-05T05:50:49.755Z,101393.95
2019-05-05T05:51:56.482Z,101397.35
2019-05-05T05:53:04.690Z,101400.73
2019-05-05T05:54:11.834Z,101402.02
2019-05-05T05:55:18.583Z,101409.66
2019-05-05T05:56:25.318Z,101409.26
2019-05-05T05:57:34.452Z,101407.55
2019-05-05T05:58:41.239Z,101411.38
2019-05-05T05:59:48.015Z,101411.83
2019-05-05T06:00:56.677Z,101413.52
2019-05-05T06:02:09.897Z,101416.92
2019-05-05T06:03:14.107Z,101417.78
2019-05-05T06:04:23.464Z,101425.45
2019-05-05T06:05:29.640Z,101422.89
2019-05-05T06:06:36.369Z,101422.06
2019-05-05T06:07:44.232Z,101420.80
2019-05-05T06:08:51.609Z,101428.00
2019-05-05T06:09:58.685Z,101430.56
2019-05-05T06:11:06.480Z,101428.00
2019-05-05T06:12:14.169Z,101433.53
2019-05-05T06:13:21.172Z,101437.35
2019-05-05T06:14:27.930Z,101433.11
2019-05-05T06:15:35.153Z,101440.77
2019-05-05T06:16:41.920Z,101440.33
2019-05-05T06:17:48.683Z,101438.62
2019-05-05T06:18:55.827Z,101443.30
2019-05-05T06:20:04.057Z,101438.64
2019-05-05T06:21:10.922Z,101438.62
2019-05-05T06:22:28.471Z,101441.61
2019-05-05T06:23:26.808Z,101441.60
2019-05-05T06:24:34.554Z,101443.72
2019-05-05T06:25:41.539Z,101444.99
2019-05-05T06:26:48.296Z,101445.41
2019-05-05T06:27:55.426Z,101447.96
2019-05-05T06:29:04.188Z,101447.52
2019-05-05T06:30:11.121Z,101444.52
2019-05-05T06:31:18.271Z,101452.58
2019-05-05T06:32:25.081Z,101446.61
2019-05-05T06:33:31.819Z,101452.98
2019-05-05T06:34:38.913Z,101448.72
2019-05-05T06:35:45.719Z,101447.48
2019-05-05T06:36:53.733Z,101455.10
2019-05-05T06:38:00.833Z,101454.27
2019-05-05T06:39:09.064Z,101455.52
2019-05-05T06:40:17.508Z,101455.95
2019-05-05T06:41:34.074Z,101460.21
2019-05-05T06:42:49.931Z,101459.74
2019-05-05T06:44:05.739Z,101455.91
2019-05-05T06:45:23.874Z,101458.47
2019-05-05T06:46:34.547Z,101457.19
2019-05-05T06:47:44.536Z,101460.14
2019-05-05T06:48:51.374Z,101456.67
2019-05-05T06:49:58.103Z,101460.94
2019-05-05T06:51:05.229Z,101460.50
2019-05-05T06:52:14.139Z,101460.02
2019-05-05T06:53:20.767Z,101463.41
2019-05-05T06:54:27.562Z,101461.69
2019-05-05T06:55:34.304Z,101467.63
2019-05-05T06:56:41.069Z,101470.57
2019-05-05T06:57:47.855Z,101471.84
2019-05-05T06:58:54.602Z,101471.80
2019-05-05T07:00:03.496Z,101471.80
2019-05-05T07:01:10.456Z,101472.17
2019-05-05T07:02:17.977Z,101473.85
2019-05-05T07:03:24.729Z,101470.84
2019-05-05T07:04:33.980Z,101476.78
2019-05-05T07:05:40.705Z,101472.94
2019-05-05T07:06:54.087Z,101472.88
2019-05-05T07:07:56.833Z,101476.31
2019-05-05T07:09:05.353Z,101471.16
2019-05-05T07:10:14.042Z,101472.81
2019-05-05T07:11:21.035Z,101472.44
2019-05-05T07:12:28.197Z,101477.55
2019-05-05T07:13:34.961Z,101477.83
2019-05-05T07:14:41.715Z,101472.57
2019-05-05T07:15:49.014Z,101475.39
2019-05-05T07:16:56.131Z,101474.80
2019-05-05T07:18:03.763Z,101476.84
2019-05-05T07:19:10.606Z,101477.15
2019-05-05T07:20:17.483Z,101473.41
2019-05-05T07:21:24.586Z,101480.13
2019-05-05T07:22:32.015Z,101482.61
2019-05-05T07:23:39.128Z,101483.75
2019-05-05T07:24:45.869Z,101484.97
2019-05-05T07:25:54.783Z,101487.16
2019-05-05T07:27:01.763Z,101486.09
2019-05-05T07:28:08.869Z,101483.63
2019-05-05T07:29:18.076Z,101487.20
2019-05-05T07:30:24.346Z,101483.72
2019-05-05T07:31:31.645Z,101488.86
2019-05-05T07:32:38.595Z,101488.94
2019-05-05T07:33:45.697Z,101490.61
2019-05-05T07:35:11.118Z,101484.22
2019-05-05T07:36:54.578Z,101489.46
2019-05-05T07:38:00.638Z,101487.67
2019-05-05T07:39:09.122Z,101491.95
2019-05-05T07:40:16.560Z,101493.77
2019-05-05T07:41:23.519Z,101489.84
2019-05-05T07:42:30.795Z,101486.44
2019-05-05T07:43:38.397Z,101490.28
2019-05-05T07:44:45.501Z,101488.09
2019-05-05T07:45:54.028Z,101491.04
2019-05-05T07:47:00.704Z,101496.09
2019-05-05T07:48:07.475Z,101493.18
2019-05-05T07:49:15.177Z,101488.55
2019-05-05T07:50:31.152Z,101491.02
2019-05-05T07:51:30.351Z,101492.14
2019-05-05T07:52:37.095Z,101491.21
2019-05-05T07:53:44.486Z,101489.11
2019-05-05T07:54:51.415Z,101494.33
2019-05-05T07:55:58.174Z,101498.16
2019-05-05T07:57:05.430Z,101488.83
2019-05-05T07:58:13.909Z,101486.65
2019-05-05T07:59:20.615Z,101489.70
2019-05-05T08:00:27.452Z,101487.58
2019-05-05T08:01:34.191Z,101485.86
2019-05-05T08:02:41.405Z,101487.96
2019-05-05T08:03:48.484Z,101485.34
2019-05-05T08:04:55.220Z,101482.71
2019-05-05T08:06:03.987Z,101487.37
2019-05-05T08:07:10.406Z,101488.57
2019-05-05T08:08:17.513Z,101486.44
2019-05-05T08:09:25.027Z,101489.71
2019-05-05T08:10:34.202Z,101491.30
2019-05-05T08:11:40.439Z,101495.98
2019-05-05T08:12:47.597Z,101494.70
2019-05-05T08:13:54.822Z,101489.36
2019-05-05T08:15:01.711Z,101489.33
2019-05-05T08:16:16.763Z,101494.70
2019-05-05T08:17:41.104Z,101494.73
2019-05-05T08:19:13.803Z,101492.83
2019-05-05T08:20:27.070Z,101491.20
2019-05-05T08:21:34.686Z,101490.28
2019-05-05T08:22:41.588Z,101492.35
2019-05-05T08:24:07.179Z,101495.66
2019-05-05T08:25:36.270Z,101489.16
2019-05-05T08:26:50.443Z,101489.09
2019-05-05T08:28:07.809Z,101491.98
2019-05-05T08:29:40.125Z,101494.12
2019-05-05T08:31:04.775Z,101504.35
2019-05-05T08:32:36.871Z,101496.45
2019-05-05T08:33:44.416Z,101495.22
2019-05-05T08:34:59.831Z,101499.52
2019-05-05T08:35:59.814Z,101496.08
2019-05-05T08:37:06.946Z,101502.75
2019-05-05T08:38:13.902Z,101504.25
2019-05-05T08:39:21.632Z,101505.73
2019-05-05T08:40:29.453Z,101507.22
2019-05-05T08:41:37.007Z,101510.80
2019-05-05T08:42:44.596Z,101503.59
2019-05-05T08:43:51.421Z,101508.69
2019-05-05T08:44:58.696Z,101501.44
2019-05-05T08:46:05.921Z,101514.34
2019-05-05T08:47:13.933Z,101524.91
2019-05-05T08:48:20.852Z,101527.09
2019-05-05T08:49:28.386Z,101526.21
2019-05-05T08:50:35.590Z,101531.56
2019-05-05T08:51:44.303Z,101535.31
2019-05-05T08:52:53.609Z,101530.69
2019-05-05T08:54:00.154Z,101539.62
2019-05-05T08:55:07.394Z,101538.89
2019-05-05T08:56:14.752Z,101537.79
2019-05-05T08:57:23.593Z,101537.12
2019-05-05T08:58:30.648Z,101530.25
2019-05-05T08:59:37.552Z,101531.61
2019-05-05T09:00:45.552Z,101528.59
2019-05-05T09:01:54.116Z,101535.47
2019-05-05T09:03:03.575Z,101541.52
2019-05-05T09:04:09.893Z,101543.35
2019-05-05T09:05:18.535Z,101532.30
2019-05-05T09:06:25.617Z,101532.74
2019-05-05T09:07:33.668Z,101538.37
2019-05-05T09:08:40.503Z,101532.84
2019-05-05T09:09:47.667Z,101534.50
2019-05-05T09:10:55.184Z,101538.70
2019-05-05T09:12:04.552Z,101531.48
2019-05-05T09:13:11.563Z,101531.57
2019-05-05T09:14:18.558Z,101530.70
2019-05-05T09:15:25.638Z,101529.89
2019-05-05T09:16:33.488Z,101524.25
2019-05-05T09:17:40.376Z,101530.92
2019-05-05T09:19:04.166Z,101524.05
2019-05-05T09:20:13.619Z,101527.43
2019-05-05T09:21:20.978Z,101529.84
2019-05-05T09:22:28.056Z,101525.95
2019-05-05T09:23:36.450Z,101525.91
2019-05-05T09:24:50.450Z,101522.75
2019-05-05T09:26:14.357Z,101525.67
2019-05-05T09:27:39.951Z,101529.88
2019-05-05T09:29:15.104Z,101520.26
2019-05-05T09:30:37.467Z,101519.93
2019-05-05T09:31:45.066Z,101522.03
2019-05-05T09:32:54.082Z,101509.23
2019-05-05T09:34:00.953Z,101519.60
2019-05-05T09:35:08.373Z,101512.37
2019-05-05T09:36:15.203Z,101521.44
2019-05-05T09:37:22.067Z,101516.94
2019-05-05T09:38:30.321Z,101525.19
2019-05-05T09:39:37.679Z,101521.64
2019-05-05T09:40:44.827Z,101532.97
2019-05-05T09:41:53.631Z,101524.20
2019-05-05T09:43:00.821Z,101524.64
2019-05-05T09:44:07.616Z,101522.87
2019-05-05T09:45:14.746Z,101522.63
2019-05-05T09:46:23.459Z,101525.16
2019-05-05T09:47:30.622Z,101522.72
2019-05-05T09:48:37.466Z,101524.77
2019-05-05T09:49:44.785Z,101530.00
2019-05-05T09:50:53.904Z,101530.48
2019-05-05T09:52:00.454Z,101530.39
2019-05-05T09:53:07.867Z,101522.62
2019-05-05T09:54:17.309Z,101528.29
2019-05-05T09:55:24.196Z,101530.98
2019-05-05T09:56:31.473Z,101531.66
2019-05-05T09:57:38.986Z,101534.59
2019-05-05T09:58:45.746Z,101535.70
2019-05-05T09:59:54.374Z,101536.23
2019-05-05T10:01:01.488Z,101532.09
2019-05-05T10:02:08.236Z,101533.91
2019-05-05T10:03:15.219Z,101532.81
2019-05-05T10:04:24.344Z,101534.31
2019-05-05T10:05:31.530Z,101532.36
2019-05-05T10:06:40.065Z,101531.54
2019-05-05T10:07:47.133Z,101528.84
2019-05-05T10:08:54.283Z,101531.51
2019-05-05T10:10:01.690Z,101536.48
2019-05-05T10:11:08.524Z,101532.09
2019-05-05T10:12:15.340Z,101534.09
2019-05-05T10:13:22.539Z,101532.63
2019-05-05T10:14:29.485Z,101536.09
2019-05-05T10:15:36.698Z,101539.33
2019-05-05T10:16:43.863Z,101540.45
2019-05-05T10:17:51.204Z,101529.64
2019-05-05T10:18:57.948Z,101540.45
2019-05-05T10:20:05.145Z,101534.50
2019-05-05T10:21:13.857Z,101536.53
2019-05-05T10:22:21.326Z,101536.89
2019-05-05T10:23:29.735Z,101543.70
2019-05-05T10:24:44.345Z,101543.64
2019-05-05T10:25:53.947Z,101549.63
2019-05-05T10:27:01.138Z,101553.42
2019-05-05T10:28:08.259Z,101545.34
2019-05-05T10:29:15.746Z,101551.68
2019-05-05T10:30:23.844Z,101551.52
2019-05-05T10:31:30.867Z,101546.91
2019-05-05T10:32:38.106Z,101548.70
2019-05-05T10:33:50.237Z,101549.77
2019-05-05T10:35:04.536Z,101548.23
2019-05-05T10:36:11.055Z,101551.67
2019-05-05T10:37:18.208Z,101542.30
2019-05-05T10:38:25.303Z,101546.69
2019-05-05T10:39:36.761Z,101546.96
2019-05-05T10:40:44.710Z,101541.84
2019-05-05T10:41:53.515Z,101546.02
2019-05-05T10:43:00.636Z,101543.99
2019-05-05T10:44:07.735Z,101543.11
2019-05-05T10:45:15.067Z,101546.17
2019-05-05T10:46:23.578Z,101549.30
2019-05-05T10:47:30.815Z,101550.58
2019-05-05T10:48:37.563Z,101548.61
2019-05-05T10:49:44.603Z,101551.23
2019-05-05T10:50:53.702Z,101554.39
2019-05-05T10:52:01.067Z,101557.45
2019-05-05T10:53:07.850Z,101540.16
2019-05-05T10:54:14.608Z,101560.05
2019-05-05T10:55:23.890Z,101566.95
2019-05-05T10:56:31.099Z,101562.70
2019-05-05T10:57:38.300Z,101552.80
2019-05-05T10:58:45.421Z,101559.98
2019-05-05T10:59:53.954Z,101559.63
2019-05-05T11:01:04.206Z,101555.32
2019-05-05T11:02:13.897Z,101559.70
2019-05-05T11:03:20.748Z,101564.58
2019-05-05T11:04:27.712Z,101569.61
2019-05-05T11:05:35.013Z,101565.66
2019-05-05T11:06:44.061Z,101564.05
2019-05-05T11:07:53.665Z,101554.42
2019-05-05T11:09:00.300Z,101577.94
2019-05-05T11:10:08.211Z,101568.41
2019-05-05T11:11:14.965Z,101567.88
2019-05-05T11:12:21.863Z,101565.11
2019-05-05T11:13:28.704Z,101573.93
2019-05-05T11:14:35.837Z,101565.80
2019-05-05T11:15:44.294Z,101568.20
2019-05-05T11:16:51.205Z,101559.97
2019-05-05T11:17:58.301Z,101570.94
2019-05-05T11:19:05.256Z,101572.48
2019-05-05T11:20:14.405Z,101570.66
2019-05-05T11:21:23.579Z,101574.73
2019-05-05T11:22:30.512Z,101567.16
2019-05-05T11:23:37.272Z,101570.67
2019-05-05T11:24:57.239Z,101573.50
2019-05-05T11:25:54.498Z,101565.16
2019-05-05T11:27:04.312Z,101570.95
2019-05-05T11:28:11.389Z,101570.72
2019-05-05T11:29:18.178Z,101575.88
2019-05-05T11:30:36.716Z,101571.22
2019-05-05T11:31:43.476Z,101570.30
2019-05-05T11:33:27.920Z,101570.83
2019-05-05T11:34:34.684Z,101570.77
2019-05-05T11:36:00.834Z,101567.25
2019-05-05T11:37:09.661Z,101569.91
2019-05-05T11:38:16.965Z,101579.17
2019-05-05T11:39:24.045Z,101569.32
2019-05-05T11:40:34.742Z,101573.17
2019-05-05T11:41:43.917Z,101571.81
2019-05-05T11:42:51.744Z,101572.92
2019-05-05T11:43:58.666Z,101576.56
2019-05-05T11:45:06.634Z,101574.42
2019-05-05T11:46:14.315Z,101578.28
2019-05-05T11:47:24.408Z,101582.53
2019-05-05T11:48:32.043Z,101580.97
2019-05-05T11:49:41.799Z,101575.47
2019-05-05T11:50:49.383Z,101575.84
2019-05-05T11:51:56.687Z,101576.91
2019-05-05T11:53:03.957Z,101576.80
2019-05-05T11:54:13.915Z,101580.66
2019-05-05T11:55:20.351Z,101585.94
2019-05-05T11:56:27.105Z,101590.44
2019-05-05T11:57:34.348Z,101587.83
2019-05-05T11:58:54.491Z,101590.28
2019-05-05T12:00:01.121Z,101586.73
2019-05-05T12:01:08.116Z,101589.44
2019-05-05T12:02:15.077Z,101594.64
2019-05-05T12:03:22.295Z,101589.77
2019-05-05T12:04:29.328Z,101588.41
2019-05-05T12:05:36.645Z,101592.27
2019-05-05T12:06:44.382Z,101588.26
2019-05-05T12:07:51.384Z,101592.15
2019-05-05T12:08:59.513Z,101586.47
2019-05-05T12:10:08.652Z,101589.36
2019-05-05T12:11:16.308Z,101587.59
2019-05-05T12:12:23.824Z,101587.76
2019-05-05T12:13:31.109Z,101582.75
2019-05-05T12:14:37.920Z,101593.72
2019-05-05T12:15:46.875Z,101591.77
2019-05-05T12:16:54.111Z,101594.53
2019-05-05T12:18:01.190Z,101595.23
2019-05-05T12:19:13.584Z,101584.93
2019-05-05T12:20:28.539Z,101586.23
2019-05-05T12:21:35.343Z,101584.44
2019-05-05T12:22:42.106Z,101578.56
2019-05-05T12:23:49.134Z,101591.75
2019-05-05T12:24:56.331Z,101588.69
2019-05-05T12:26:31.368Z,101593.78
2019-05-05T12:27:44.196Z,101591.72
2019-05-05T12:29:14.000Z,101597.29
2019-05-05T12:30:20.928Z,101585.50
2019-05-05T12:31:29.347Z,101587.11
2019-05-05T12:32:36.146Z,101593.52
2019-05-05T12:33:44.167Z,101589.78
2019-05-05T12:34:51.270Z,101589.36
2019-05-05T12:35:58.054Z,101582.64
2019-05-05T12:37:05.383Z,101598.93
2019-05-05T12:38:12.574Z,101596.34
2019-05-05T12:39:19.848Z,101591.02
2019-05-05T12:40:27.133Z,101599.70
2019-05-05T12:41:34.407Z,101597.11
2019-05-05T12:42:43.857Z,101596.37
2019-05-05T12:43:50.035Z,101599.67
2019-05-05T12:45:04.404Z,101604.92
2019-05-05T12:46:20.976Z,101609.05
2019-05-05T12:47:58.836Z,101602.98
2019-05-05T12:49:06.967Z,101617.16
2019-05-05T12:50:14.535Z,101613.20
2019-05-05T12:51:23.134Z,101615.48
2019-05-05T12:52:29.897Z,101621.83
2019-05-05T12:53:37.250Z,101611.21
2019-05-05T12:54:44.372Z,101612.00
2019-05-05T12:55:51.157Z,101614.00
2019-05-05T12:56:58.574Z,101622.91
2019-05-05T12:58:05.651Z,101618.52
2019-05-05T12:59:17.528Z,101618.78
2019-05-05T13:00:24.776Z,101612.55
2019-05-05T13:01:35.423Z,101619.63
2019-05-05T13:02:44.203Z,101622.08
2019-05-05T13:03:51.210Z,101625.76
2019-05-05T13:04:57.963Z,101624.92
2019-05-05T13:06:05.115Z,101635.64
2019-05-05T13:07:13.601Z,101622.63
2019-05-05T13:08:20.439Z,101620.08
2019-05-05T13:09:27.289Z,101623.81
2019-05-05T13:10:34.201Z,101632.16
2019-05-05T13:11:43.488Z,101623.05
2019-05-05T13:12:50.132Z,101628.42
2019-05-05T13:13:57.295Z,101624.54
2019-05-05T13:15:04.777Z,101625.19
2019-05-05T13:16:13.507Z,101623.06